Time;durP1;ratioP1;P1;durP2;ratioP2;P2;SDS_P1;SDS_P2;PMS_P1;PMS_P2;Temp;Humidity;BMP_temperature;BMP_pressure;BME280_temperature;BME280_humidity;BME280_pressure;Samples;Min_cycle;Max_cycle;Signal;HPM_P1;HPM_P2
2022/10/26 00:01:52;;;;;;;0.83;0.40;;;12.90;99.90;;;;;;5099580;28;20461;-88
2022/10/26 00:04:19;;;;;;;0.57;0.40;;;12.90;99.90;;;;;;5100282;28;20449;-88
2022/10/26 00:06:46;;;;;;;0.50;0.50;;;12.90;99.90;;;;;;5099748;28;20483;-88
2022/10/26 00:09:14;;;;;;;0.60;0.60;;;12.90;99.90;;;;;;5099887;28;20436;-87
2022/10/26 00:11:41;;;;;;;0.47;0.47;;;12.90;99.90;;;;;;5099479;28;20979;-88
2022/10/26 00:14:08;;;;;;;0.50;0.50;;;12.90;99.90;;;;;;5100384;28;20946;-88
2022/10/26 00:16:35;;;;;;;0.50;0.50;;;12.80;99.90;;;;;;5098816;28;20481;-87
2022/10/26 00:19:01;;;;;;;1.13;0.50;;;12.80;99.90;;;;;;5101128;28;20839;-88
2022/10/26 00:21:28;;;;;;;0.40;0.40;;;12.90;99.90;;;;;;5101087;28;20535;-88
2022/10/26 00:23:55;;;;;;;2.43;0.30;;;12.90;99.90;;;;;;5100970;28;20447;-88
2022/10/26 00:26:23;;;;;;;0.60;0.60;;;12.90;99.90;;;;;;5099902;28;20825;-87
2022/10/26 00:28:53;;;;;;;0.70;0.50;;;12.90;99.90;;;;;;5100698;28;20455;-87
2022/10/26 00:31:20;;;;;;;0.70;0.50;;;12.90;99.90;;;;;;5097289;28;20885;-87
2022/10/26 00:33:46;;;;;;;0.50;0.40;;;12.80;99.90;;;;;;5099021;28;20531;-88
2022/10/26 00:36:15;;;;;;;0.40;0.40;;;12.90;99.90;;;;;;5100494;28;20553;-88
2022/10/26 00:38:44;;;;;;;0.97;0.70;;;12.90;99.90;;;;;;5099839;28;20460;-88
2022/10/26 00:41:14;;;;;;;1.27;0.63;;;13.00;99.90;;;;;;5099709;28;20468;-87
2022/10/26 00:43:42;;;;;;;0.40;0.40;;;13.00;99.90;;;;;;5099224;28;20823;-87
2022/10/26 00:46:14;;;;;;;0.73;0.50;;;13.00;99.90;;;;;;5100191;28;20445;-88
2022/10/26 00:48:45;;;;;;;0.40;0.40;;;13.00;99.90;;;;;;5098480;28;20463;-88
2022/10/26 00:51:16;;;;;;;0.80;0.60;;;13.00;99.90;;;;;;5098539;28;20840;-82
2022/10/26 00:53:44;;;;;;;0.60;0.50;;;13.00;99.90;;;;;;5094443;28;20912;-81
2022/10/26 00:56:11;;;;;;;0.87;0.80;;;13.10;99.90;;;;;;5094346;28;20845;-81
2022/10/26 00:58:38;;;;;;;0.60;0.60;;;13.00;99.90;;;;;;5094630;28;20448;-81
2022/10/26 01:01:07;;;;;;;1.00;0.60;;;13.00;99.90;;;;;;5094235;28;20452;-82
2022/10/26 01:03:35;;;;;;;9.83;0.93;;;13.10;99.90;;;;;;5094409;28;20817;-82
2022/10/26 01:06:04;;;;;;;1.03;0.70;;;13.00;99.90;;;;;;5094564;28;20445;-81
2022/10/26 01:08:32;;;;;;;1.00;0.40;;;13.00;99.90;;;;;;5094061;28;21006;-82
2022/10/26 01:11:00;;;;;;;0.50;0.40;;;13.00;99.90;;;;;;5094343;28;20480;-82
2022/10/26 01:13:28;;;;;;;0.50;0.50;;;13.00;99.90;;;;;;5094385;28;20451;-82
2022/10/26 01:16:07;;;;;;;0.50;0.40;;;13.00;99.90;;;;;;5094155;28;20484;-82
2022/10/26 01:18:44;;;;;;;0.77;0.60;;;12.90;99.90;;;;;;5094315;28;20523;-82
2022/10/26 01:21:45;;;;;;;0.60;0.43;;;12.90;99.90;;;;;;5094182;28;20464;-82
2022/10/26 01:24:37;;;;;;;1.53;0.70;;;13.00;99.90;;;;;;5050250;28;20975;-81
2022/10/26 01:27:21;;;;;;;0.50;0.50;;;13.00;99.90;;;;;;5090040;28;20489;-81
2022/10/26 01:30:28;;;;;;;0.60;0.50;;;13.00;99.90;;;;;;5094170;28;20432;-81
2022/10/26 01:33:25;;;;;;;0.43;0.43;;;13.00;99.90;;;;;;5045955;28;20456;-81
2022/10/26 01:36:00;;;;;;;0.40;0.40;;;13.10;99.90;;;;;;5087701;28;20457;-81
2022/10/26 01:38:39;;;;;;;2.30;0.87;;;13.10;99.90;;;;;;5093744;28;20792;-81
2022/10/26 01:41:11;;;;;;;1.13;0.60;;;13.00;99.90;;;;;;5093953;28;20461;-81
2022/10/26 01:43:42;;;;;;;0.60;0.50;;;13.10;99.90;;;;;;5093868;28;20436;-81
2022/10/26 01:46:11;;;;;;;0.50;0.50;;;13.00;99.90;;;;;;5093539;28;20931;-81
2022/10/26 01:48:41;;;;;;;0.60;0.60;;;13.00;99.90;;;;;;5093760;28;20487;-81
2022/10/26 01:51:11;;;;;;;1.13;0.50;;;13.00;99.90;;;;;;5093720;28;20472;-81
2022/10/26 01:53:44;;;;;;;0.70;0.40;;;13.00;99.90;;;;;;5093784;28;20433;-81
2022/10/26 01:56:18;;;;;;;1.33;0.60;;;13.00;99.90;;;;;;5093428;28;20796;-80
2022/10/26 01:58:58;;;;;;;11.17;0.70;;;12.90;99.90;;;;;;5098454;28;20904;-81
2022/10/26 02:01:41;;;;;;;1.47;0.40;;;12.90;99.90;;;;;;5093601;28;20464;-81
2022/10/26 02:04:21;;;;;;;3.80;0.63;;;12.90;99.90;;;;;;5093649;28;20429;-81
2022/10/26 02:06:56;;;;;;;0.60;0.50;;;12.90;99.90;;;;;;5093212;28;20425;-81
2022/10/26 02:09:34;;;;;;;2.20;0.50;;;12.90;99.90;;;;;;5093277;28;20432;-81
2022/10/26 02:12:06;;;;;;;0.50;0.50;;;12.90;99.90;;;;;;5093132;28;20467;-81
2022/10/26 02:14:44;;;;;;;0.50;0.47;;;12.90;99.90;;;;;;5093489;28;20436;-81
2022/10/26 02:17:18;;;;;;;1.37;0.80;;;12.90;99.90;;;;;;5093024;28;20987;-81
2022/10/26 02:19:51;;;;;;;0.70;0.70;;;12.90;99.90;;;;;;5093250;28;20404;-81
2022/10/26 02:22:24;;;;;;;0.70;0.40;;;12.90;99.90;;;;;;5093057;28;20827;-81
2022/10/26 02:24:53;;;;;;;0.50;0.50;;;12.90;99.90;;;;;;5093900;28;20448;-81
2022/10/26 02:27:23;;;;;;;0.77;0.70;;;12.80;99.90;;;;;;5093315;28;20495;-81
2022/10/26 02:29:52;;;;;;;0.40;0.40;;;12.80;99.90;;;;;;5093017;28;20448;-81
2022/10/26 02:32:20;;;;;;;1.60;0.80;;;12.80;99.90;;;;;;5093227;28;20504;-81
2022/10/26 02:34:51;;;;;;;0.67;0.67;;;12.80;99.90;;;;;;5093302;28;20440;-81
2022/10/26 02:37:20;;;;;;;0.90;0.60;;;12.80;99.90;;;;;;5093302;28;20429;-81
2022/10/26 02:39:50;;;;;;;0.87;0.80;;;12.70;99.90;;;;;;5093280;28;20456;-81
2022/10/26 02:42:19;;;;;;;1.53;0.80;;;12.70;99.90;;;;;;5093178;28;20480;-81
2022/10/26 02:44:49;;;;;;;1.03;0.57;;;12.70;99.90;;;;;;5093190;28;20441;-81
2022/10/26 02:47:18;;;;;;;0.50;0.50;;;12.80;99.90;;;;;;5092979;28;20465;-82
2022/10/26 02:49:45;;;;;;;0.60;0.60;;;12.70;99.90;;;;;;5093244;28;20966;-82
2022/10/26 02:52:19;;;;;;;1.27;0.90;;;12.70;99.90;;;;;;5093176;28;20473;-82
2022/10/26 02:54:52;;;;;;;0.80;0.50;;;12.70;99.90;;;;;;5095904;28;20915;-82
2022/10/26 02:57:24;;;;;;;0.40;0.40;;;12.70;99.90;;;;;;5097048;28;20464;-82
2022/10/26 02:59:52;;;;;;;0.40;0.40;;;12.70;99.90;;;;;;5096615;28;20900;-82
2022/10/26 03:02:20;;;;;;;0.87;0.50;;;12.70;99.90;;;;;;5096849;28;20460;-82
2022/10/26 03:04:49;;;;;;;0.40;0.40;;;12.80;99.90;;;;;;5096908;28;20451;-81
2022/10/26 03:07:22;;;;;;;0.40;0.40;;;12.90;99.90;;;;;;5096744;28;20448;-81
2022/10/26 03:09:49;;;;;;;1.27;1.03;;;12.80;99.90;;;;;;5096798;28;20428;-82
2022/10/26 03:12:16;;;;;;;1.00;0.60;;;12.80;99.90;;;;;;5096641;28;20502;-82
2022/10/26 03:14:42;;;;;;;0.60;0.60;;;12.90;99.90;;;;;;5096621;28;20450;-80
2022/10/26 03:17:09;;;;;;;1.50;0.80;;;13.00;99.90;;;;;;5096283;28;20477;-80
2022/10/26 03:19:36;;;;;;;0.57;0.47;;;13.00;99.90;;;;;;5096544;28;20444;-80
2022/10/26 03:22:03;;;;;;;3.40;0.60;;;12.90;99.90;;;;;;5096454;28;20467;-79
2022/10/26 03:24:31;;;;;;;1.00;0.50;;;12.90;99.90;;;;;;5096512;28;20441;-79
2022/10/26 03:26:57;;;;;;;0.70;0.50;;;12.90;99.90;;;;;;5096477;28;20436;-79
2022/10/26 03:29:25;;;;;;;0.87;0.60;;;12.90;99.90;;;;;;5096328;28;20484;-79
2022/10/26 03:31:53;;;;;;;1.33;0.60;;;12.90;99.90;;;;;;5095876;28;20478;-79
2022/10/26 03:34:20;;;;;;;0.60;0.60;;;13.00;99.90;;;;;;5096265;28;20444;-79
2022/10/26 03:36:47;;;;;;;3.60;0.40;;;13.00;99.90;;;;;;5096223;28;20517;-80
2022/10/26 03:39:14;;;;;;;0.53;0.37;;;13.00;99.90;;;;;;5095871;28;20951;-80
2022/10/26 03:41:43;;;;;;;0.47;0.47;;;13.00;99.90;;;;;;5096048;28;20468;-80
2022/10/26 03:44:09;;;;;;;0.50;0.50;;;13.10;99.90;;;;;;5096125;28;20441;-80
2022/10/26 03:46:36;;;;;;;1.57;0.40;;;13.10;99.90;;;;;;5095700;28;20936;-80
2022/10/26 03:49:03;;;;;;;0.50;0.50;;;13.20;99.90;;;;;;5095615;28;21003;-80
2022/10/26 03:51:30;;;;;;;0.60;0.40;;;13.20;99.90;;;;;;5096284;28;20472;-80
2022/10/26 03:53:57;;;;;;;0.90;0.90;;;13.20;99.90;;;;;;5095590;28;20819;-80
2022/10/26 03:56:24;;;;;;;0.83;0.70;;;13.30;99.90;;;;;;5095705;28;20486;-80
2022/10/26 03:58:52;;;;;;;1.03;0.60;;;13.30;99.90;;;;;;5095930;28;20448;-80
2022/10/26 04:01:18;;;;;;;1.00;0.63;;;13.40;99.90;;;;;;5095721;28;20464;-82
2022/10/26 04:03:45;;;;;;;0.70;0.50;;;13.40;99.90;;;;;;5095429;28;20448;-79
2022/10/26 04:06:12;;;;;;;0.40;0.40;;;13.40;99.90;;;;;;5095237;28;20456;-80
2022/10/26 04:08:39;;;;;;;0.40;0.40;;;13.50;99.90;;;;;;5095451;28;20479;-80
2022/10/26 04:11:05;;;;;;;1.40;0.60;;;13.40;99.90;;;;;;5095244;28;20477;-80
2022/10/26 04:13:32;;;;;;;0.50;0.47;;;13.40;99.90;;;;;;5095564;28;20440;-80
2022/10/26 04:16:00;;;;;;;0.40;0.40;;;13.30;99.90;;;;;;5095303;28;20828;-81
2022/10/26 04:18:27;;;;;;;0.90;0.50;;;13.30;99.90;;;;;;5095462;28;20432;-80
2022/10/26 04:20:54;;;;;;;1.90;0.70;;;13.00;99.90;;;;;;5095338;28;20472;-80
2022/10/26 04:23:21;;;;;;;0.40;0.40;;;12.90;99.90;;;;;;5095035;28;20452;-79
2022/10/26 04:25:47;;;;;;;1.60;0.50;;;12.80;99.90;;;;;;5095291;28;20448;-80
2022/10/26 04:28:14;;;;;;;0.53;0.40;;;12.60;99.90;;;;;;5095164;28;20484;-83
2022/10/26 04:30:41;;;;;;;0.50;0.43;;;12.60;99.90;;;;;;5094844;28;20924;-83
2022/10/26 04:33:10;;;;;;;0.50;0.40;;;12.50;99.90;;;;;;5095178;28;20456;-83
2022/10/26 04:35:36;;;;;;;0.70;0.50;;;12.50;99.90;;;;;;5094868;28;20459;-82
2022/10/26 04:38:05;;;;;;;0.77;0.60;;;12.50;99.90;;;;;;5095090;28;20468;-80
2022/10/26 04:40:33;;;;;;;0.40;0.40;;;12.50;99.90;;;;;;5094961;28;20479;-80
2022/10/26 04:43:00;;;;;;;9.20;0.70;;;12.50;99.90;;;;;;5094948;28;20452;-80
2022/10/26 04:45:29;;;;;;;0.47;0.40;;;12.40;99.90;;;;;;5094627;28;20459;-79
2022/10/26 04:48:00;;;;;;;0.50;0.50;;;12.40;99.90;;;;;;5094770;28;20487;-80
2022/10/26 04:50:28;;;;;;;2.10;0.73;;;12.40;99.90;;;;;;5094726;28;20453;-80
2022/10/26 04:52:55;;;;;;;0.50;0.47;;;12.40;99.90;;;;;;5094454;28;20456;-80
2022/10/26 04:55:22;;;;;;;0.83;0.57;;;12.40;99.90;;;;;;5094446;28;20457;-80
2022/10/26 04:57:49;;;;;;;0.50;0.37;;;12.40;99.90;;;;;;5094682;28;20448;-81
2022/10/26 05:00:16;;;;;;;0.47;0.43;;;12.40;99.90;;;;;;5094616;28;20455;-80
2022/10/26 05:02:42;;;;;;;0.93;0.50;;;12.40;99.90;;;;;;5094595;28;20444;-80
2022/10/26 05:05:10;;;;;;;0.53;0.50;;;12.40;99.90;;;;;;5094258;28;20958;-80
2022/10/26 05:07:38;;;;;;;0.47;0.47;;;12.40;99.90;;;;;;5094454;28;20445;-80
2022/10/26 05:10:05;;;;;;;0.60;0.40;;;12.30;99.90;;;;;;5094502;28;20448;-80
2022/10/26 05:12:32;;;;;;;3.93;0.50;;;12.30;99.90;;;;;;5094093;28;20975;-80
2022/10/26 05:14:59;;;;;;;0.70;0.50;;;12.40;99.90;;;;;;5094357;28;20451;-80
2022/10/26 05:17:26;;;;;;;1.30;0.83;;;12.40;99.90;;;;;;5093408;28;20484;-80
2022/10/26 05:19:54;;;;;;;0.40;0.40;;;12.40;99.90;;;;;;5094313;28;20444;-81
2022/10/26 05:22:21;;;;;;;0.80;0.50;;;12.40;99.90;;;;;;5094228;28;20477;-81
2022/10/26 05:24:49;;;;;;;0.90;0.40;;;12.50;99.90;;;;;;5093890;28;20448;-80
2022/10/26 05:27:16;;;;;;;0.80;0.40;;;12.50;99.90;;;;;;5093846;28;20948;-80
2022/10/26 05:29:43;;;;;;;0.53;0.40;;;12.50;99.90;;;;;;5093959;28;20480;-80
2022/10/26 05:32:09;;;;;;;0.90;0.50;;;12.50;99.90;;;;;;5093896;28;20473;-80
2022/10/26 05:34:36;;;;;;;0.70;0.50;;;12.50;99.90;;;;;;5093829;28;20435;-83
2022/10/26 05:37:03;;;;;;;0.50;0.50;;;12.50;99.90;;;;;;5093662;28;20475;-83
2022/10/26 05:39:30;;;;;;;0.50;0.50;;;12.50;99.90;;;;;;5093987;28;20440;-83
2022/10/26 05:41:58;;;;;;;0.37;0.33;;;12.60;99.90;;;;;;5093871;28;20808;-81
2022/10/26 05:44:24;;;;;;;1.90;1.53;;;12.60;99.90;;;;;;5093878;28;20444;-81
2022/10/26 05:46:51;;;;;;;0.40;0.40;;;12.60;99.90;;;;;;5093844;28;20440;-81
2022/10/26 05:49:18;;;;;;;1.10;0.53;;;12.60;99.90;;;;;;5093746;28;20484;-81
2022/10/26 05:51:45;;;;;;;0.40;0.30;;;12.70;99.90;;;;;;5093682;28;20469;-81
2022/10/26 05:54:11;;;;;;;0.80;0.50;;;12.80;99.90;;;;;;5093714;28;20455;-81
2022/10/26 05:56:40;;;;;;;0.40;0.40;;;12.80;99.90;;;;;;5093677;28;20445;-81
2022/10/26 05:59:13;;;;;;;0.40;0.40;;;12.80;99.90;;;;;;5093373;28;20935;-81
2022/10/26 06:01:59;;;;;;;0.80;0.50;;;12.90;99.90;;;;;;5093548;28;20472;-81
2022/10/26 06:04:36;;;;;;;0.53;0.50;;;12.90;99.90;;;;;;5093321;28;20425;-82
2022/10/26 06:07:04;;;;;;;0.67;0.40;;;12.90;99.90;;;;;;5093522;28;20441;-83
2022/10/26 06:09:31;;;;;;;0.50;0.40;;;12.90;99.90;;;;;;5093481;28;20484;-81
2022/10/26 06:12:00;;;;;;;0.47;0.43;;;12.90;99.90;;;;;;5093201;28;20991;-82
2022/10/26 06:14:29;;;;;;;0.40;0.40;;;13.00;99.90;;;;;;5093536;28;20463;-82
2022/10/26 06:17:06;;;;;;;0.50;0.40;;;13.00;99.90;;;;;;5092998;28;21034;-83
2022/10/26 06:19:47;;;;;;;1.50;0.50;;;13.10;99.90;;;;;;5093513;28;20425;-81
2022/10/26 06:22:25;;;;;;;0.40;0.30;;;13.10;99.90;;;;;;5093433;28;20990;-82
2022/10/26 06:25:01;;;;;;;0.70;0.70;;;13.20;99.90;;;;;;5093411;28;20425;-82
2022/10/26 06:27:37;;;;;;;1.17;0.50;;;13.30;99.90;;;;;;5094268;28;20436;-82
2022/10/26 06:30:08;;;;;;;0.43;0.43;;;13.40;99.90;;;;;;5097060;28;20460;-82
2022/10/26 06:32:36;;;;;;;0.40;0.40;;;13.40;99.90;;;;;;5097455;28;20472;-82
2022/10/26 06:35:14;;;;;;;1.57;0.60;;;13.40;99.90;;;;;;5097652;28;20462;-82
2022/10/26 06:37:44;;;;;;;0.50;0.50;;;13.40;99.90;;;;;;5097502;28;20439;-81
2022/10/26 06:40:14;;;;;;;0.60;0.43;;;13.40;99.90;;;;;;5097371;28;20432;-82
2022/10/26 06:42:41;;;;;;;0.50;0.30;;;13.40;99.90;;;;;;5096988;28;20448;-81
2022/10/26 06:45:14;;;;;;;0.60;0.50;;;13.40;99.90;;;;;;5097265;28;20440;-82
2022/10/26 06:47:45;;;;;;;0.40;0.40;;;13.50;99.90;;;;;;5097316;28;20433;-82
2022/10/26 06:50:23;;;;;;;1.33;0.57;;;13.50;99.90;;;;;;5096728;28;20472;-82
2022/10/26 06:53:01;;;;;;;0.30;0.30;;;13.50;99.90;;;;;;5097205;28;20502;-82
2022/10/26 06:55:38;;;;;;;0.50;0.40;;;13.60;99.90;;;;;;5096705;28;20440;-81
2022/10/26 06:58:07;;;;;;;0.70;0.50;;;13.60;99.90;;;;;;5097083;28;20441;-82
2022/10/26 07:00:35;;;;;;;0.87;0.50;;;13.60;99.90;;;;;;5096896;28;20475;-81
2022/10/26 07:03:02;;;;;;;1.97;1.87;;;13.60;99.90;;;;;;5096898;28;20456;-82
2022/10/26 07:05:29;;;;;;;0.40;0.30;;;13.60;99.90;;;;;;5096924;28;20630;-81
2022/10/26 07:07:56;;;;;;;0.40;0.40;;;13.60;99.90;;;;;;5096914;28;20519;-81
2022/10/26 07:10:22;;;;;;;1.07;1.07;;;13.60;99.90;;;;;;5096678;28;20483;-81
2022/10/26 07:12:49;;;;;;;1.00;0.60;;;13.60;99.90;;;;;;5096761;28;20459;-81
2022/10/26 07:15:16;;;;;;;0.47;0.40;;;13.60;99.90;;;;;;5096690;28;20463;-82
2022/10/26 07:17:45;;;;;;;0.50;0.50;;;13.60;99.90;;;;;;5096214;28;20484;-81
2022/10/26 07:20:12;;;;;;;1.77;0.67;;;13.60;99.90;;;;;;5096586;28;20440;-82
2022/10/26 07:22:39;;;;;;;3.27;0.80;;;13.70;99.90;;;;;;5096564;28;20441;-82
2022/10/26 07:25:07;;;;;;;0.67;0.40;;;13.70;99.90;;;;;;5096552;28;20447;-81
2022/10/26 07:27:33;;;;;;;0.60;0.50;;;13.70;99.90;;;;;;5096448;28;20452;-82
2022/10/26 07:30:00;;;;;;;0.50;0.50;;;13.70;99.90;;;;;;5096286;28;20488;-81
2022/10/26 07:32:27;;;;;;;0.50;0.50;;;13.80;99.90;;;;;;5096326;28;20476;-81
2022/10/26 07:34:55;;;;;;;2.20;0.57;;;13.80;99.90;;;;;;5096154;28;20460;-82
2022/10/26 07:37:22;;;;;;;1.27;0.67;;;13.90;99.90;;;;;;5095949;28;20452;-81
2022/10/26 07:39:49;;;;;;;0.50;0.47;;;13.90;99.90;;;;;;5095341;28;20949;-81
2022/10/26 07:42:16;;;;;;;1.63;0.60;;;13.90;99.90;;;;;;5096079;28;20469;-81
2022/10/26 07:44:42;;;;;;;1.50;0.47;;;14.00;99.90;;;;;;5096416;28;20827;-81
2022/10/26 07:47:09;;;;;;;0.93;0.57;;;14.10;99.90;;;;;;5096046;28;20456;-81
2022/10/26 07:49:36;;;;;;;0.40;0.40;;;14.20;99.90;;;;;;5095612;28;20476;-81
2022/10/26 07:52:05;;;;;;;1.60;0.50;;;14.20;99.90;;;;;;5095612;28;21014;-82
2022/10/26 07:54:31;;;;;;;4.83;0.70;;;14.20;99.90;;;;;;5095585;28;20954;-82
2022/10/26 07:56:58;;;;;;;0.73;0.73;;;14.30;99.90;;;;;;5096459;28;20454;-82
2022/10/26 07:59:25;;;;;;;0.80;0.63;;;14.40;99.90;;;;;;5095858;28;20540;-82
2022/10/26 08:01:52;;;;;;;1.43;0.60;;;14.60;99.90;;;;;;5095738;28;20464;-82
2022/10/26 08:04:19;;;;;;;0.63;0.63;;;14.70;99.90;;;;;;5095769;28;20445;-84
2022/10/26 08:06:47;;;;;;;15.77;1.03;;;14.80;99.90;;;;;;5096198;28;20445;-86
2022/10/26 08:09:15;;;;;;;2.60;0.60;;;14.90;99.90;;;;;;5096695;28;20829;-85
2022/10/26 08:11:42;;;;;;;2.23;0.47;;;15.00;99.90;;;;;;5095394;28;20998;-84
2022/10/26 08:14:11;;;;;;;0.60;0.43;;;15.00;99.90;;;;;;5095324;28;20444;-84
2022/10/26 08:16:39;;;;;;;1.03;0.60;;;15.10;99.90;;;;;;5095601;28;20480;-84
2022/10/26 08:19:06;;;;;;;1.53;1.43;;;15.10;99.90;;;;;;5095483;28;20437;-84
2022/10/26 08:21:32;;;;;;;0.40;0.40;;;15.10;99.90;;;;;;5095053;28;20479;-83
2022/10/26 08:23:59;;;;;;;0.47;0.47;;;15.00;99.90;;;;;;5095125;28;20440;-84
2022/10/26 08:26:27;;;;;;;0.97;0.97;;;15.00;99.90;;;;;;5095313;28;20444;-84
2022/10/26 08:28:54;;;;;;;0.53;0.53;;;15.20;99.90;;;;;;5095496;28;20534;-84
2022/10/26 08:31:21;;;;;;;0.50;0.40;;;15.20;99.90;;;;;;5095347;28;20471;-84
2022/10/26 08:33:48;;;;;;;0.80;0.50;;;15.20;99.90;;;;;;5095259;28;20447;-84
2022/10/26 08:36:18;;;;;;;0.70;0.50;;;15.20;99.90;;;;;;5095154;28;20437;-84
2022/10/26 08:38:47;;;;;;;0.93;0.60;;;15.20;99.90;;;;;;5095251;28;20532;-84
2022/10/26 08:41:14;;;;;;;6.30;1.00;;;15.20;99.90;;;;;;5094825;28;20453;-85
2022/10/26 08:43:47;;;;;;;1.03;0.30;;;15.20;99.90;;;;;;5095131;28;20448;-86
2022/10/26 08:46:19;;;;;;;4.23;0.70;;;15.30;99.90;;;;;;5095251;28;20429;-84
2022/10/26 08:48:51;;;;;;;1.17;0.53;;;15.40;99.90;;;;;;5095219;28;20435;-84
2022/10/26 08:51:23;;;;;;;0.83;0.50;;;15.50;99.90;;;;;;5094168;28;20464;-84
2022/10/26 08:53:54;;;;;;;0.43;0.43;;;15.60;99.90;;;;;;5095091;28;20490;-84
2022/10/26 08:56:24;;;;;;;0.93;0.50;;;15.70;99.90;;;;;;5094977;28;20447;-84
2022/10/26 08:58:57;;;;;;;0.80;0.60;;;15.80;99.90;;;;;;5094898;28;20429;-84
2022/10/26 09:01:24;;;;;;;1.20;0.77;;;16.20;99.90;;;;;;5094712;28;20460;-84
2022/10/26 09:03:51;;;;;;;1.10;0.40;;;16.80;99.90;;;;;;5094725;28;20444;-84
2022/10/26 09:06:25;;;;;;;0.50;0.50;;;17.00;99.90;;;;;;5094682;28;20448;-85
2022/10/26 09:09:00;;;;;;;2.13;0.53;;;17.00;99.90;;;;;;5094672;28;20429;-85
2022/10/26 09:11:48;;;;;;;0.70;0.50;;;17.00;99.90;;;;;;5094899;28;20472;-88
2022/10/26 09:14:21;;;;;;;0.50;0.50;;;17.00;99.90;;;;;;5094932;28;20428;-87
2022/10/26 09:17:01;;;;;;;0.70;0.57;;;16.90;99.90;;;;;;5094761;28;20478;-86
2022/10/26 09:20:00;;;;;;;0.40;0.40;;;16.90;99.90;;;;;;5094221;28;20902;-85
2022/10/26 09:22:35;;;;;;;0.60;0.60;;;17.20;99.90;;;;;;5024291;28;20468;-86
2022/10/26 09:25:12;;;;;;;1.13;0.83;;;18.10;99.90;;;;;;5094276;28;20432;-85
2022/10/26 09:27:43;;;;;;;3.77;0.90;;;19.70;99.90;;;;;;5094316;28;20432;-86
2022/10/26 09:30:15;;;;;;;0.50;0.50;;;20.80;99.90;;;;;;5094222;28;20468;-86
2022/10/26 09:32:46;;;;;;;0.90;0.70;;;21.60;99.90;;;;;;5094161;28;20432;-85
2022/10/26 09:35:17;;;;;;;3.60;0.67;;;22.70;99.90;;;;;;5094128;28;20451;-84
2022/10/26 09:37:49;;;;;;;3.20;0.80;;;23.30;99.90;;;;;;5094119;28;20813;-85
2022/10/26 09:40:21;;;;;;;0.90;0.50;;;23.70;99.90;;;;;;5093917;28;20443;-86
2022/10/26 09:42:54;;;;;;;1.07;0.70;;;23.90;99.90;;;;;;5093665;28;20182;-86
2022/10/26 09:45:28;;;;;;;1.15;0.60;;;23.90;99.90;;;;;;5093639;28;20653;-86
2022/10/26 09:47:59;;;;;;;0.93;0.60;;;24.10;99.90;;;;;;5093846;28;20187;-86
2022/10/26 09:50:29;;;;;;;0.70;0.60;;;23.40;99.90;;;;;;5093406;28;20206;-86
2022/10/26 09:52:56;;;;;;;1.73;0.70;;;22.70;99.90;;;;;;5093909;28;20186;-85
2022/10/26 09:55:23;;;;;;;0.50;0.50;;;21.80;99.90;;;;;;5093491;28;20297;-85
2022/10/26 09:57:53;;;;;;;2.83;0.60;;;21.00;99.90;;;;;;5093497;28;20878;-85
2022/10/26 10:00:23;;;;;;;1.40;0.60;;;20.60;99.90;;;;;;5093751;28;20436;-85
2022/10/26 10:02:51;;;;;;;0.60;0.50;;;20.40;99.90;;;;;;5093510;28;20458;-86
2022/10/26 10:05:30;;;;;;;1.10;0.73;;;20.70;99.90;;;;;;5093706;28;20965;-85
2022/10/26 10:08:11;;;;;;;0.93;0.60;;;22.00;99.90;;;;;;5093302;28;20432;-86
2022/10/26 10:10:38;;;;;;;0.43;0.43;;;23.40;99.90;;;;;;5093480;28;20229;-85
2022/10/26 10:13:15;;;;;;;1.40;0.70;;;24.00;99.90;;;;;;5093588;28;20569;-86
2022/10/26 10:15:52;;;;;;;1.08;0.52;;;23.90;99.90;;;;;;5093362;28;20217;-85
2022/10/26 10:18:20;;;;;;;2.35;0.80;;;23.50;99.90;;;;;;5093261;28;20212;-85
2022/10/26 10:20:52;;;;;;;1.17;0.60;;;22.90;99.90;;;;;;5093410;28;20218;-85
2022/10/26 10:23:26;;;;;;;0.50;0.50;;;22.40;99.90;;;;;;5093576;28;20193;-85
2022/10/26 10:26:03;;;;;;;2.05;0.60;;;22.20;99.90;;;;;;5093514;28;20178;-85
2022/10/26 10:28:30;;;;;;;0.93;0.87;;;22.00;99.90;;;;;;5093466;28;20272;-85
2022/10/26 10:31:00;;;;;;;0.50;0.47;;;21.40;99.90;;;;;;5093704;28;20230;-85
2022/10/26 10:33:38;;;;;;;0.83;0.50;;;21.20;99.90;;;;;;5093475;28;20224;-85
2022/10/26 10:36:10;;;;;;;1.63;0.80;;;21.20;99.90;;;;;;5093191;28;20192;-86
2022/10/26 10:38:42;;;;;;;1.57;0.57;;;21.20;99.90;;;;;;5093399;28;20435;-85
2022/10/26 10:41:19;;;;;;;0.70;0.50;;;21.20;99.90;;;;;;5093277;28;20462;-85
2022/10/26 10:43:48;;;;;;;0.70;0.40;;;21.20;99.90;;;;;;5093018;28;20680;-85
2022/10/26 10:46:21;;;;;;;3.73;0.90;;;21.30;99.90;;;;;;5093921;28;20458;-84
2022/10/26 10:48:53;;;;;;;0.90;0.70;;;21.30;99.90;;;;;;5095963;28;20436;-86
2022/10/26 10:51:22;;;;;;;4.70;0.57;;;21.40;99.90;;;;;;5098134;28;20484;-85
2022/10/26 10:53:50;;;;;;;0.73;0.60;;;21.40;99.90;;;;;;5093490;28;20452;-85
2022/10/26 10:56:41;;;;;;;0.90;0.70;;;21.40;99.90;;;;;;5093197;28;20455;-85
2022/10/26 10:59:44;;;;;;;1.37;0.60;;;21.20;99.90;;;;;;5093909;28;20797;-85
2022/10/26 11:02:40;;;;;;;0.50;0.47;;;21.20;99.90;;;;;;5089696;28;20479;-85
2022/10/26 11:05:21;;;;;;;1.63;0.53;;;20.90;99.90;;;;;;5078884;28;20463;-85
2022/10/26 11:07:54;;;;;;;0.70;0.70;;;20.60;99.90;;;;;;5093632;28;20459;-85
2022/10/26 11:10:26;;;;;;;0.97;0.60;;;20.40;99.90;;;;;;5092600;28;20475;-82
2022/10/26 11:12:57;;;;;;;2.00;0.50;;;20.30;99.90;;;;;;5093023;28;20439;-82
2022/10/26 11:15:28;;;;;;;0.50;0.50;;;20.20;99.90;;;;;;5095338;28;20420;-82
2022/10/26 11:18:06;;;;;;;0.80;0.60;;;20.10;99.90;;;;;;5096299;28;20471;-82
2022/10/26 11:20:37;;;;;;;0.50;0.50;;;20.10;99.90;;;;;;5096525;28;20460;-82
2022/10/26 11:23:11;;;;;;;1.57;0.50;;;20.10;99.90;;;;;;5096663;28;20428;-82
2022/10/26 11:25:44;;;;;;;2.00;0.60;;;20.20;99.90;;;;;;5096612;28;20828;-82
2022/10/26 11:28:15;;;;;;;8.30;0.90;;;20.20;99.90;;;;;;5096319;28;20413;-82
2022/10/26 11:30:47;;;;;;;2.80;0.63;;;20.20;99.90;;;;;;5096512;28;20488;-82
2022/10/26 11:33:19;;;;;;;0.50;0.50;;;20.30;99.90;;;;;;5096704;28;20526;-82
2022/10/26 11:35:53;;;;;;;1.03;0.60;;;20.40;99.90;;;;;;5096113;28;20432;-82
2022/10/26 11:38:26;;;;;;;1.63;0.60;;;20.40;99.90;;;;;;5096099;28;20907;-82
2022/10/26 11:41:00;;;;;;;0.50;0.50;;;20.50;99.90;;;;;;5096207;28;20460;-82
2022/10/26 11:43:31;;;;;;;1.80;0.60;;;20.70;99.90;;;;;;5096400;28;20428;-82
2022/10/26 11:46:05;;;;;;;2.20;0.50;;;20.70;99.90;;;;;;5096227;28;20523;-81
2022/10/26 11:48:37;;;;;;;1.30;1.20;;;20.60;99.90;;;;;;5096172;28;20814;-82
2022/10/26 11:51:09;;;;;;;0.43;0.40;;;20.60;99.90;;;;;;5095685;28;20566;-82
2022/10/26 11:53:40;;;;;;;2.80;0.50;;;20.50;99.90;;;;;;5096836;28;20440;-81
2022/10/26 11:56:14;;;;;;;0.70;0.50;;;20.60;99.90;;;;;;5095811;28;20434;-82
2022/10/26 11:58:43;;;;;;;0.40;0.30;;;20.50;99.90;;;;;;5095841;28;20799;-83
2022/10/26 12:01:13;;;;;;;0.50;0.40;;;20.40;99.90;;;;;;5095892;28;20979;-82
2022/10/26 12:03:46;;;;;;;0.70;0.70;;;20.30;99.90;;;;;;5095697;28;20927;-82
2022/10/26 12:06:15;;;;;;;0.50;0.40;;;20.20;99.90;;;;;;5096054;28;20424;-81
2022/10/26 12:08:46;;;;;;;0.70;0.50;;;20.20;99.90;;;;;;5095928;28;20451;-82
2022/10/26 12:11:27;;;;;;;3.33;0.60;;;20.10;99.90;;;;;;5095709;28;20488;-81
2022/10/26 12:13:59;;;;;;;0.70;0.40;;;20.10;99.90;;;;;;5095931;28;20427;-81
2022/10/26 12:16:40;;;;;;;0.40;0.40;;;20.10;99.90;;;;;;5095444;28;20479;-82
2022/10/26 12:19:18;;;;;;;0.50;0.50;;;20.20;99.90;;;;;;5095414;28;20416;-82
2022/10/26 12:21:47;;;;;;;1.10;0.60;;;20.30;99.90;;;;;;5095665;28;20818;-82
2022/10/26 12:24:28;;;;;;;2.20;0.60;;;20.40;99.90;;;;;;5095404;28;20954;-82
2022/10/26 12:26:57;;;;;;;0.60;0.50;;;20.50;99.90;;;;;;5095616;28;20474;-82
2022/10/26 12:29:36;;;;;;;0.90;0.60;;;20.50;99.90;;;;;;5095427;28;20444;-81
2022/10/26 12:32:04;;;;;;;0.90;0.53;;;20.50;99.90;;;;;;5095108;28;20849;-82
2022/10/26 12:34:59;;;;;;;2.57;0.53;;;20.50;99.90;;;;;;5095129;28;20439;-82
2022/10/26 12:37:33;;;;;;;0.40;0.33;;;20.50;99.90;;;;;;5095309;28;20473;-82
2022/10/26 12:40:40;;;;;;;0.60;0.43;;;20.40;99.90;;;;;;5095108;28;20446;-82
2022/10/26 12:43:33;;;;;;;2.20;0.60;;;20.40;99.90;;;;;;5084520;28;20462;-82
2022/10/26 12:46:42;;;;;;;0.40;0.40;;;20.30;99.90;;;;;;5094705;28;20444;-82
2022/10/26 12:49:39;;;;;;;1.17;0.50;;;20.30;99.90;;;;;;5095309;28;20446;-81
2022/10/26 12:52:26;;;;;;;1.20;0.47;;;20.30;99.90;;;;;;5059735;28;20491;-81
2022/10/26 12:55:32;;;;;;;1.30;0.60;;;20.30;99.90;;;;;;5095073;28;20429;-82
2022/10/26 12:58:16;;;;;;;0.40;0.40;;;20.20;99.90;;;;;;5095039;28;20454;-82
2022/10/26 13:00:49;;;;;;;0.97;0.50;;;20.10;99.90;;;;;;5094893;28;20462;-81
2022/10/26 13:03:28;;;;;;;5.03;0.40;;;20.10;99.90;;;;;;5094867;28;20459;-82
2022/10/26 13:06:08;;;;;;;2.00;0.40;;;20.10;99.90;;;;;;5094632;28;20428;-82
2022/10/26 13:08:42;;;;;;;1.47;0.60;;;20.00;99.90;;;;;;5094551;28;20489;-81
2022/10/26 13:11:16;;;;;;;0.70;0.40;;;19.80;99.90;;;;;;5094338;28;20483;-81